Accueil
METAR-TAF:

METAR-TAF

Aéroports :

Nassau, Bahamas

Aéroport international Lynden Pindling

latitude: 25-03N, longitude: 077-28W, altitude: 3 m

Observation

Le bulletin a été fait il y a 1 heure et 11 minutes, à 23:00 UTC
Vent 4 kt de nord/nord-est
Température 27°C
Humidité 74%
Pression 1013 hPa
Visibilité 10 km ou plus
Nuages épars à une hauteur de 1800 ft

METAR: MYNN 222300Z 02004KT 9999 SCT018 27/22 A2992

Heure: 19:11 (00:11 UTC)

Prévision

Le bulletin a été fait il y a 8 heures et 11 minutes, à 16:00 UTC
Prévision valable du 22 à 18 UTC au 23 à 18 UTC
Vent 8 kt de nord/nord-ouest
Visibilité 10 km ou plus
Quelques nuages à une hauteur de 2000 ft

TAF: MYNN 221600Z 2218/2318 34008KT 9999 FEW020

Observations et prévisions météorologiques de plus de 4000 aéroports (messages METAR et TAF).

Les stations disponibles sont représentées par des disques jaunes et rouges sur la carte.

Passer la souris dessus pour voir le nom de la station.

Cliquer dessus pour voir les observations et prévisions météorologiques.

Pour changer de carte: cliquez sur les boutons verts avec une croix noire pour zoomer, sur le bouton vert avec un tiret pour effectuer un zoom arrière, ou sur les flèches vertes pour les cartes adjacentes.


METAR-TAF: